Time;durP1;ratioP1;P1;durP2;ratioP2;P2;SDS_P1;SDS_P2;PMS_P1;PMS_P2;Temp;Humidity;BMP_temperature;BMP_pressure;BME280_temperature;BME280_humidity;BME280_pressure;Samples;Min_cycle;Max_cycle;Signal;HPM_P1;HPM_P2
2024/01/30 00:01:02;;;;;;;79.20;40.20;;;1.50;1.00;;;;;;10473590;28;20205;-83
2024/01/30 00:06:28;;;;;;;70.27;36.40;;;1.60;1.00;;;;;;10505130;28;20262;-80
2024/01/30 00:11:52;;;;;;;66.67;34.70;;;1.70;1.00;;;;;;10494452;28;20305;-80
2024/01/30 00:17:14;;;;;;;73.37;39.20;;;1.80;1.00;;;;;;10480831;28;20267;-84
2024/01/30 00:22:37;;;;;;;89.27;44.97;;;1.70;1.00;;;;;;10494480;28;20203;-81
2024/01/30 00:28:01;;;;;;;86.17;44.03;;;1.70;1.00;;;;;;10480790;28;20553;-82
2024/01/30 00:33:23;;;;;;;94.20;46.73;;;1.60;99.90;;;;;;10480807;28;20210;-82
2024/01/30 00:38:47;;;;;;;90.03;47.17;;;1.50;1.00;;;;;;10512919;28;20199;-81
2024/01/30 00:44:10;;;;;;;84.13;46.47;;;1.40;1.00;;;;;;10508837;28;20206;-84
2024/01/30 00:49:32;;;;;;;78.13;40.87;;;1.40;99.90;;;;;;10496881;28;20250;-83
2024/01/30 00:54:53;;;;;;;74.40;37.60;;;1.30;99.90;;;;;;10493360;28;20202;-83
2024/01/30 01:00:16;;;;;;;65.60;35.03;;;1.40;1.00;;;;;;10493248;28;20217;-82
2024/01/30 01:05:38;;;;;;;67.43;34.30;;;1.40;1.00;;;;;;10478882;28;20561;-83
2024/01/30 01:10:59;;;;;;;67.70;33.33;;;1.30;1.00;;;;;;10478481;28;20227;-84
2024/01/30 01:16:21;;;;;;;58.53;31.17;;;1.40;1.00;;;;;;10492458;28;20392;-84
2024/01/30 01:21:42;;;;;;;61.77;33.73;;;1.30;99.90;;;;;;10491813;28;20387;-83
2024/01/30 01:27:05;;;;;;;67.40;36.90;;;1.30;99.90;;;;;;10478159;28;20195;-83
2024/01/30 01:32:26;;;;;;;61.00;34.10;;;1.30;1.00;;;;;;10413636;28;20251;-81
2024/01/30 01:37:54;;;;;;;74.53;37.03;;;1.30;99.90;;;;;;10439472;28;20197;-81
2024/01/30 01:43:15;;;;;;;74.23;38.67;;;1.30;99.90;;;;;;10439105;28;20507;-84
2024/01/30 01:48:39;;;;;;;69.37;37.90;;;1.20;1.00;;;;;;10438845;28;20541;-83
2024/01/30 01:54:03;;;;;;;64.40;34.50;;;1.30;99.90;;;;;;10438480;28;20514;-83
2024/01/30 01:59:27;;;;;;;64.17;32.60;;;1.30;1.00;;;;;;10438721;28;20205;-84
2024/01/30 02:04:50;;;;;;;60.67;32.60;;;1.30;99.90;;;;;;10438531;28;20204;-81
2024/01/30 02:10:12;;;;;;;65.57;32.53;;;1.30;99.90;;;;;;10452195;28;20246;-81
2024/01/30 02:15:34;;;;;;;57.23;31.63;;;1.40;1.00;;;;;;10440033;28;20270;-80
2024/01/30 02:20:58;;;;;;;57.53;30.47;;;1.50;93.10;;;;;;10409531;28;20556;-81
2024/01/30 02:26:20;;;;;;;54.20;30.23;;;1.30;1.00;;;;;;10437081;28;20363;-83
2024/01/30 02:31:41;;;;;;;54.43;29.57;;;1.30;1.00;;;;;;10430873;28;20251;-80
2024/01/30 02:37:04;;;;;;;56.33;29.70;;;1.30;1.00;;;;;;10423023;28;20275;-81
2024/01/30 02:42:25;;;;;;;57.63;31.13;;;1.20;1.00;;;;;;10422971;28;20263;-83
2024/01/30 02:47:49;;;;;;;58.03;32.37;;;1.20;99.90;;;;;;10423190;28;20211;-83
2024/01/30 02:53:11;;;;;;;51.73;29.90;;;1.10;99.90;;;;;;10408632;28;20253;-82
2024/01/30 02:58:37;;;;;;;56.00;31.13;;;1.20;1.00;;;;;;10420868;28;20211;-81
2024/01/30 03:04:00;;;;;;;58.67;31.23;;;1.20;95.20;;;;;;10407647;28;20203;-80
2024/01/30 03:09:24;;;;;;;54.03;29.53;;;1.20;37.40;;;;;;10381248;28;20223;-81
2024/01/30 03:14:45;;;;;;;49.30;28.10;;;1.10;1.00;;;;;;10383236;28;20193;-80
2024/01/30 03:20:09;;;;;;;53.07;29.87;;;1.10;1.00;;;;;;10421785;28;20196;-81
2024/01/30 03:25:30;;;;;;;62.13;31.80;;;1.10;1.00;;;;;;10435320;28;20238;-80
2024/01/30 03:30:52;;;;;;;56.10;31.23;;;1.10;1.00;;;;;;10434179;28;20239;-80
2024/01/30 03:36:16;;;;;;;60.57;32.67;;;1.10;1.00;;;;;;10381141;28;20193;-83
2024/01/30 03:41:37;;;;;;;57.40;31.73;;;1.00;99.90;;;;;;10399243;28;20239;-83
2024/01/30 03:46:59;;;;;;;59.80;31.93;;;1.00;1.00;;;;;;10389476;28;20553;-83
2024/01/30 03:52:20;;;;;;;59.77;31.23;;;0.90;1.00;;;;;;10403480;28;20274;-82
2024/01/30 03:57:44;;;;;;;59.07;30.80;;;0.90;1.00;;;;;;10392857;28;20200;-79
2024/01/30 04:03:05;;;;;;;57.63;30.17;;;0.90;1.00;;;;;;10415432;28;20199;-81
2024/01/30 04:08:29;;;;;;;58.47;31.23;;;0.90;1.00;;;;;;10457185;28;20518;-83
2024/01/30 04:13:50;;;;;;;57.47;31.93;;;0.80;99.90;;;;;;10414606;28;20203;-82
2024/01/30 04:19:12;;;;;;;59.87;32.37;;;0.80;1.00;;;;;;10429025;28;20210;-82
2024/01/30 04:24:33;;;;;;;50.83;28.53;;;0.80;99.90;;;;;;10428791;28;20426;-81
2024/01/30 04:29:56;;;;;;;56.47;30.97;;;0.80;92.70;;;;;;10464046;28;20269;-80
2024/01/30 04:35:17;;;;;;;60.30;31.03;;;0.80;1.00;;;;;;10510418;28;20478;-81
2024/01/30 04:40:38;;;;;;;57.53;30.87;;;0.80;1.00;;;;;;10521307;28;20202;-79
2024/01/30 04:45:59;;;;;;;54.47;31.37;;;0.80;1.00;;;;;;10492677;28;20197;-80
2024/01/30 04:51:22;;;;;;;50.80;30.40;;;0.80;1.00;;;;;;10492439;28;20420;-81
2024/01/30 04:56:46;;;;;;;59.83;32.07;;;0.80;99.90;;;;;;10492957;28;20556;-82
2024/01/30 05:02:07;;;;;;;51.20;30.00;;;0.80;99.90;;;;;;10537264;28;20273;-82
2024/01/30 05:07:28;;;;;;;54.93;29.80;;;0.70;99.90;;;;;;10523938;28;20195;-82
2024/01/30 05:12:50;;;;;;;59.27;31.53;;;0.80;99.90;;;;;;10492473;28;20291;-83
2024/01/30 05:18:11;;;;;;;52.67;28.17;;;0.70;1.00;;;;;;10491636;28;20201;-81
2024/01/30 05:23:32;;;;;;;61.37;33.73;;;0.80;1.00;;;;;;10508258;28;20194;-82
2024/01/30 05:28:54;;;;;;;64.87;36.10;;;0.80;1.00;;;;;;10507149;28;20239;-82
2024/01/30 05:34:16;;;;;;;59.17;34.93;;;0.80;1.00;;;;;;10505736;28;20206;-83
2024/01/30 05:39:37;;;;;;;81.87;41.03;;;0.80;19.20;;;;;;10491387;28;20206;-83
2024/01/30 05:44:58;;;;;;;91.50;42.00;;;0.90;4.30;;;;;;10504613;28;20244;-82
2024/01/30 05:50:23;;;;;;;67.60;35.57;;;0.90;1.00;;;;;;10490574;28;20234;-82
2024/01/30 05:55:44;;;;;;;59.40;30.23;;;0.80;99.90;;;;;;10504139;28;20478;-81
2024/01/30 06:01:09;;;;;;;55.90;29.90;;;0.80;1.00;;;;;;10492044;28;20222;-82
2024/01/30 06:06:30;;;;;;;57.73;31.43;;;0.80;1.00;;;;;;10489159;28;20382;-80
2024/01/30 06:11:51;;;;;;;59.53;32.87;;;0.90;75.20;;;;;;10489564;28;20302;-82
2024/01/30 06:17:13;;;;;;;63.57;36.30;;;0.90;1.00;;;;;;10489755;28;20202;-83
2024/01/30 06:22:35;;;;;;;68.33;35.83;;;1.00;1.00;;;;;;10492163;28;20203;-82
2024/01/30 06:27:56;;;;;;;61.87;33.27;;;1.10;1.00;;;;;;10474271;28;20228;-83
2024/01/30 06:33:17;;;;;;;88.87;47.37;;;1.10;1.00;;;;;;10489097;28;20274;-83
2024/01/30 06:38:40;;;;;;;117.00;60.13;;;1.20;1.00;;;;;;10489221;28;20196;-83
2024/01/30 06:44:06;;;;;;;116.13;56.83;;;1.20;1.00;;;;;;10488861;28;20199;-83
2024/01/30 06:49:28;;;;;;;104.43;52.83;;;1.20;1.00;;;;;;10520438;28;20219;-80
2024/01/30 06:54:50;;;;;;;93.10;48.67;;;1.20;1.00;;;;;;10488185;28;20202;-80
2024/01/30 07:00:11;;;;;;;123.80;53.97;;;1.30;1.00;;;;;;10487190;28;20398;-83
2024/01/30 07:05:33;;;;;;;98.37;47.57;;;1.30;1.00;;;;;;10474783;28;20196;-83
2024/01/30 07:10:55;;;;;;;73.57;39.93;;;1.40;99.90;;;;;;10477735;28;20212;-85
2024/01/30 07:16:19;;;;;;;75.70;39.90;;;1.50;1.00;;;;;;10463786;28;20250;-83
2024/01/30 07:21:43;;;;;;;66.23;35.53;;;1.50;99.90;;;;;;10453651;28;20278;-84
2024/01/30 07:27:04;;;;;;;69.60;38.37;;;1.70;99.90;;;;;;10504724;28;20195;-80
2024/01/30 07:32:26;;;;;;;70.73;38.27;;;1.70;99.90;;;;;;10500415;28;20313;-85
2024/01/30 07:37:50;;;;;;;60.50;32.93;;;1.80;99.90;;;;;;10505084;28;20215;-83
2024/01/30 07:43:12;;;;;;;62.73;31.90;;;1.90;1.00;;;;;;10504481;28;20191;-84
2024/01/30 07:48:34;;;;;;;61.23;33.13;;;2.00;1.00;;;;;;10487229;28;20226;-85
2024/01/30 07:53:55;;;;;;;63.83;32.27;;;2.10;1.00;;;;;;10490342;28;20448;-84
2024/01/30 07:59:19;;;;;;;60.93;32.10;;;2.20;1.00;;;;;;10486046;28;20533;-85
2024/01/30 08:04:40;;;;;;;61.87;30.97;;;2.30;1.00;;;;;;10432789;28;20208;-83
2024/01/30 08:10:02;;;;;;;125.03;43.03;;;2.40;1.00;;;;;;10482033;28;20335;-85
2024/01/30 08:15:24;;;;;;;99.40;43.17;;;2.50;99.90;;;;;;10474871;28;20199;-84
2024/01/30 08:20:47;;;;;;;61.27;32.47;;;2.70;99.90;;;;;;10501115;28;20200;-82
2024/01/30 08:26:10;;;;;;;54.80;30.17;;;3.00;99.90;;;;;;10373652;28;20696;-85
2024/01/30 08:31:31;;;;;;;49.40;28.53;;;3.20;74.10;;;;;;10384985;28;20274;-88
2024/01/30 08:36:53;;;;;;;74.27;39.17;;;3.50;1.00;;;;;;10410592;28;20404;-84
2024/01/30 08:42:14;;;;;;;55.13;29.97;;;3.90;1.00;;;;;;10388754;28;20196;-86
2024/01/30 08:47:37;;;;;;;61.00;29.37;;;4.30;1.00;;;;;;10385238;28;20431;-83
2024/01/30 08:52:59;;;;;;;91.20;40.47;;;4.90;99.90;;;;;;10363932;28;20225;-80
2024/01/30 08:58:23;;;;;;;81.13;37.17;;;5.50;96.70;;;;;;10369454;28;20200;-78
2024/01/30 09:03:46;;;;;;;48.90;26.57;;;5.90;1.00;;;;;;10396454;28;20216;-82
2024/01/30 09:09:10;;;;;;;45.17;24.60;;;6.00;1.00;;;;;;10394679;28;20368;-82
2024/01/30 09:14:31;;;;;;;46.30;22.87;;;5.90;1.00;;;;;;10386191;28;20213;-81
2024/01/30 09:19:52;;;;;;;42.47;23.57;;;5.50;1.00;;;;;;10362431;28;20513;-81
2024/01/30 09:25:14;;;;;;;42.40;22.00;;;5.20;28.70;;;;;;10374536;28;20287;-84
2024/01/30 09:30:35;;;;;;;38.47;22.53;;;5.10;16.90;;;;;;10353930;28;20258;-81
2024/01/30 09:35:56;;;;;;;41.40;24.33;;;5.10;44.70;;;;;;10375412;28;20521;-80
2024/01/30 09:41:19;;;;;;;44.70;23.77;;;5.10;99.90;;;;;;10365992;28;20514;-81
2024/01/30 09:46:42;;;;;;;50.50;26.30;;;5.10;99.90;;;;;;10370070;28;20227;-84
2024/01/30 09:52:03;;;;;;;45.93;24.80;;;5.10;99.90;;;;;;10390722;28;20304;-82
2024/01/30 09:57:26;;;;;;;46.00;25.00;;;5.30;97.60;;;;;;10388220;28;20214;-80
2024/01/30 10:02:47;;;;;;;52.03;27.10;;;5.40;99.90;;;;;;10362018;28;20231;-82
2024/01/30 10:08:08;;;;;;;49.67;23.87;;;5.40;99.90;;;;;;10367878;28;20287;-83
2024/01/30 10:13:30;;;;;;;43.63;23.40;;;5.50;68.10;;;;;;10376999;28;20239;-83
2024/01/30 10:18:51;;;;;;;63.03;30.80;;;5.50;58.10;;;;;;10376990;28;20455;-84
2024/01/30 10:24:13;;;;;;;50.60;26.13;;;5.60;36.30;;;;;;10376040;28;20212;-83
2024/01/30 10:29:36;;;;;;;46.83;22.90;;;5.60;42.50;;;;;;10363914;28;20239;-81
2024/01/30 10:34:58;;;;;;;46.37;23.60;;;5.70;29.40;;;;;;10375437;28;20502;-88
2024/01/30 10:40:24;;;;;;;46.90;24.60;;;5.80;12.50;;;;;;10378049;28;20210;-83
2024/01/30 10:45:51;;;;;;;43.60;23.93;;;5.80;8.50;;;;;;10364317;28;20220;-80
2024/01/30 10:51:14;;;;;;;43.30;21.83;;;5.80;4.10;;;;;;10366169;28;20546;-83
2024/01/30 10:56:36;;;;;;;45.80;21.27;;;5.80;1.00;;;;;;10381186;28;20461;-82
2024/01/30 11:01:59;;;;;;;50.67;24.10;;;5.90;1.00;;;;;;10359245;28;20204;-85
2024/01/30 11:07:28;;;;;;;44.07;25.30;;;6.10;1.00;;;;;;10366182;28;20212;-83
2024/01/30 11:12:51;;;;;;;42.67;21.43;;;6.10;1.00;;;;;;10377267;28;20245;-83
2024/01/30 11:18:30;;;;;;;43.83;24.50;;;6.30;1.00;;;;;;10377178;28;20197;-86
2024/01/30 11:23:51;;;;;;;40.70;21.73;;;6.40;1.00;;;;;;10372752;28;20206;-83
2024/01/30 11:29:14;;;;;;;33.60;18.43;;;6.80;1.00;;;;;;10373898;28;20303;-83
2024/01/30 11:34:41;;;;;;;28.53;16.90;;;7.90;1.00;;;;;;10349491;28;20196;-89
2024/01/30 11:40:04;;;;;;;31.60;16.70;;;8.90;1.00;;;;;;10338484;28;20405;-90
2024/01/30 11:45:28;;;;;;;28.90;17.00;;;9.40;1.00;;;;;;10348335;28;20275;-82
2024/01/30 11:50:50;;;;;;;32.90;19.03;;;10.20;1.00;;;;;;10335239;28;20545;-81
2024/01/30 11:56:12;;;;;;;29.60;17.80;;;10.60;1.00;;;;;;10356180;28;20253;-82
2024/01/30 12:01:33;;;;;;;31.27;18.33;;;10.70;1.00;;;;;;10376933;28;20204;-82
2024/01/30 12:06:55;;;;;;;45.53;18.53;;;11.10;1.00;;;;;;10382315;28;20212;-83
2024/01/30 12:12:16;;;;;;;36.33;19.17;;;11.10;1.00;;;;;;10368887;28;20234;-84
2024/01/30 12:17:38;;;;;;;25.50;15.00;;;11.30;1.00;;;;;;10368554;28;20199;-84
2024/01/30 12:22:59;;;;;;;28.33;17.83;;;11.10;1.00;;;;;;10368654;28;20315;-87
2024/01/30 12:28:21;;;;;;;36.57;18.53;;;10.70;1.00;;;;;;10381443;28;20489;-87
2024/01/30 12:33:42;;;;;;;44.00;23.40;;;9.80;1.00;;;;;;10395538;28;20343;-82
2024/01/30 12:39:04;;;;;;;50.10;23.70;;;9.30;1.00;;;;;;10374299;28;20294;-89
2024/01/30 12:44:25;;;;;;;41.60;21.70;;;8.90;1.00;;;;;;10387691;28;20438;-85
2024/01/30 12:49:47;;;;;;;43.13;21.20;;;8.60;1.00;;;;;;10353862;28;20393;-82
2024/01/30 12:55:08;;;;;;;44.70;24.10;;;8.20;1.00;;;;;;10340086;28;20206;-81
2024/01/30 13:00:29;;;;;;;53.23;25.73;;;8.20;1.00;;;;;;10374444;28;20245;-83
2024/01/30 13:05:51;;;;;;;46.93;22.83;;;8.10;1.00;;;;;;10394618;28;20251;-83
2024/01/30 13:11:12;;;;;;;48.90;28.40;;;8.00;1.00;;;;;;10379839;28;20473;-82
2024/01/30 13:16:35;;;;;;;63.67;32.93;;;8.00;1.00;;;;;;10420353;28;20277;-80
2024/01/30 13:21:56;;;;;;;46.37;25.60;;;7.90;1.00;;;;;;10393261;28;20209;-80
2024/01/30 13:27:18;;;;;;;39.07;22.30;;;8.00;1.00;;;;;;10343534;28;20237;-84
2024/01/30 13:32:41;;;;;;;49.13;25.97;;;7.80;1.00;;;;;;10379016;28;20239;-84
2024/01/30 13:38:02;;;;;;;44.97;24.50;;;7.50;1.00;;;;;;10392053;28;20273;-81
2024/01/30 13:43:23;;;;;;;44.07;25.50;;;7.40;1.00;;;;;;10364195;28;20201;-82
2024/01/30 13:48:45;;;;;;;41.10;22.03;;;7.30;1.00;;;;;;10364566;28;20205;-82
2024/01/30 13:54:06;;;;;;;44.17;23.23;;;7.20;1.00;;;;;;10405757;28;20586;-83
2024/01/30 13:59:27;;;;;;;37.90;21.97;;;7.00;1.00;;;;;;10377691;28;20200;-81
2024/01/30 14:04:49;;;;;;;45.47;22.67;;;6.90;1.00;;;;;;10380350;28;20216;-81
2024/01/30 14:10:13;;;;;;;67.47;31.70;;;6.80;1.00;;;;;;10383366;28;20271;-89
2024/01/30 14:15:34;;;;;;;53.37;28.57;;;6.70;1.00;;;;;;10364649;28;20215;-81
2024/01/30 14:20:55;;;;;;;45.33;23.70;;;6.60;33.80;;;;;;10365111;28;20208;-82
2024/01/30 14:26:17;;;;;;;40.30;23.90;;;6.40;46.00;;;;;;10387351;28;20227;-86
2024/01/30 14:31:38;;;;;;;38.73;21.37;;;6.20;88.90;;;;;;10377541;28;20569;-87
2024/01/30 14:36:59;;;;;;;39.43;23.23;;;6.00;99.90;;;;;;10363100;28;20204;-83
2024/01/30 14:42:21;;;;;;;37.47;21.10;;;5.90;99.90;;;;;;10392930;28;20231;-84
2024/01/30 14:47:42;;;;;;;45.07;27.00;;;5.70;99.90;;;;;;10418379;28;20202;-84
2024/01/30 14:53:04;;;;;;;46.07;25.30;;;5.60;99.90;;;;;;10366758;28;20235;-86
2024/01/30 14:58:25;;;;;;;45.07;24.43;;;5.60;99.90;;;;;;10406750;28;20462;-83
2024/01/30 15:03:48;;;;;;;39.57;23.17;;;5.50;99.90;;;;;;10383138;28;20215;-83
2024/01/30 15:09:09;;;;;;;40.30;22.23;;;5.30;99.90;;;;;;10392212;28;20191;-87
2024/01/30 15:14:31;;;;;;;40.80;25.63;;;5.20;99.90;;;;;;10374391;28;20296;-86
2024/01/30 15:19:52;;;;;;;53.67;29.57;;;5.10;99.90;;;;;;10389485;28;20262;-87
2024/01/30 15:25:13;;;;;;;50.73;29.30;;;5.00;1.00;;;;;;10374802;28;20230;-81
2024/01/30 15:30:35;;;;;;;89.27;50.73;;;4.90;1.00;;;;;;10373559;28;20321;-83
2024/01/30 15:35:56;;;;;;;145.93;81.10;;;4.80;1.00;;;;;;10377629;28;20226;-84
2024/01/30 15:41:17;;;;;;;137.97;71.57;;;4.70;1.00;;;;;;10383338;28;20233;-84
2024/01/30 15:46:39;;;;;;;206.10;90.17;;;4.60;1.00;;;;;;10400631;28;20459;-80
2024/01/30 15:52:00;;;;;;;123.73;55.43;;;4.50;1.00;;;;;;10371106;28;20245;-82
2024/01/30 15:57:22;;;;;;;95.37;42.20;;;4.40;1.00;;;;;;10356503;28;20410;-82
2024/01/30 16:02:44;;;;;;;73.27;34.93;;;4.30;1.00;;;;;;10375447;28;20214;-82
2024/01/30 16:08:06;;;;;;;78.53;38.60;;;4.20;1.00;;;;;;10387906;28;20251;-82
2024/01/30 16:13:28;;;;;;;100.67;46.07;;;4.20;1.00;;;;;;10385077;28;20272;-82
2024/01/30 16:18:49;;;;;;;114.60;51.60;;;4.10;2.10;;;;;;10371902;28;20238;-82
2024/01/30 16:24:11;;;;;;;152.47;65.63;;;4.00;12.00;;;;;;10366790;28;20203;-83
2024/01/30 16:29:32;;;;;;;161.83;74.37;;;3.90;99.90;;;;;;10416215;28;20258;-81
2024/01/30 16:34:55;;;;;;;129.67;65.50;;;3.90;99.90;;;;;;10412195;28;20222;-82
2024/01/30 16:40:19;;;;;;;93.57;48.10;;;3.80;99.90;;;;;;10430457;28;20206;-81
2024/01/30 16:45:40;;;;;;;67.40;34.77;;;3.80;99.90;;;;;;10418433;28;20258;-82
2024/01/30 16:51:02;;;;;;;52.00;29.77;;;3.70;99.90;;;;;;10399387;28;20223;-82
2024/01/30 16:56:23;;;;;;;42.30;25.70;;;3.70;99.90;;;;;;10405045;28;20252;-82
2024/01/30 17:01:47;;;;;;;38.80;23.93;;;3.70;99.90;;;;;;10404783;28;20219;-82
2024/01/30 17:07:09;;;;;;;44.23;25.53;;;3.70;99.90;;;;;;10395711;28;20238;-81
2024/01/30 17:12:33;;;;;;;53.00;29.00;;;3.60;99.90;;;;;;10399732;28;20296;-83
2024/01/30 17:17:54;;;;;;;58.40;33.00;;;3.70;99.90;;;;;;10399307;28;20203;-82
2024/01/30 17:23:16;;;;;;;60.57;32.47;;;3.60;99.90;;;;;;10398927;28;20209;-81
2024/01/30 17:28:37;;;;;;;64.20;36.33;;;3.50;99.90;;;;;;10398372;28;20311;-83
2024/01/30 17:34:00;;;;;;;77.97;42.73;;;3.40;1.00;;;;;;10405075;28;20232;-82
2024/01/30 17:39:21;;;;;;;113.07;61.30;;;3.30;99.90;;;;;;10383883;28;20392;-82
2024/01/30 17:44:42;;;;;;;106.87;58.83;;;3.30;99.90;;;;;;10398097;28;20197;-82
2024/01/30 17:50:05;;;;;;;91.93;52.20;;;3.20;1.00;;;;;;10377342;28;20203;-82
2024/01/30 17:55:26;;;;;;;94.57;50.93;;;3.20;1.00;;;;;;10376197;28;20232;-82
2024/01/30 18:00:47;;;;;;;87.23;48.13;;;3.20;1.00;;;;;;10369672;28;20198;-81
2024/01/30 18:06:15;;;;;;;95.33;49.70;;;3.10;1.00;;;;;;10413700;28;20341;-83
2024/01/30 18:11:36;;;;;;;101.00;50.70;;;3.10;1.00;;;;;;10396997;28;20234;-82
2024/01/30 18:16:57;;;;;;;123.40;61.00;;;3.10;1.00;;;;;;10385639;28;20209;-83
2024/01/30 18:22:19;;;;;;;122.87;61.53;;;3.00;1.00;;;;;;10396916;28;20201;-82
2024/01/30 18:27:43;;;;;;;141.60;72.87;;;3.00;1.00;;;;;;10360274;28;20458;-83
2024/01/30 18:33:04;;;;;;;143.10;72.57;;;2.90;1.00;;;;;;10381940;28;20222;-82
2024/01/30 18:38:25;;;;;;;155.73;81.07;;;2.80;1.00;;;;;;10398045;28;20377;-82
2024/01/30 18:43:47;;;;;;;155.47;80.70;;;2.80;1.00;;;;;;10373167;28;20606;-82
2024/01/30 18:49:08;;;;;;;139.10;70.80;;;2.80;59.70;;;;;;10396421;28;20241;-82
2024/01/30 18:54:29;;;;;;;137.03;67.50;;;2.70;1.00;;;;;;10395633;28;20294;-82
2024/01/30 18:59:52;;;;;;;114.70;58.80;;;2.70;1.00;;;;;;10409322;28;20202;-81
2024/01/30 19:05:13;;;;;;;121.27;61.67;;;2.60;1.00;;;;;;10388315;28;20277;-82
2024/01/30 19:10:35;;;;;;;131.07;69.23;;;2.60;1.00;;;;;;10409015;28;20193;-83
2024/01/30 19:15:59;;;;;;;130.07;72.60;;;2.60;1.00;;;;;;10394646;28;20280;-82
2024/01/30 19:21:20;;;;;;;142.80;75.50;;;2.60;1.00;;;;;;10395090;28;20201;-83
2024/01/30 19:26:42;;;;;;;157.87;76.10;;;2.50;1.00;;;;;;10409292;28;20209;-82
2024/01/30 19:32:03;;;;;;;194.10;93.50;;;2.50;1.00;;;;;;10383650;28;20316;-82
2024/01/30 19:37:26;;;;;;;198.63;96.13;;;2.40;1.00;;;;;;10394605;28;20225;-82
2024/01/30 19:42:51;;;;;;;182.97;87.70;;;2.40;2.40;;;;;;10413542;28;20205;-83
2024/01/30 19:48:15;;;;;;;285.37;139.43;;;2.50;99.90;;;;;;10393496;28;20205;-82
2024/01/30 19:53:38;;;;;;;217.57;104.00;;;2.50;1.00;;;;;;10394204;28;20282;-83
2024/01/30 19:58:59;;;;;;;142.70;73.93;;;2.50;99.90;;;;;;10394189;28;20243;-81
2024/01/30 20:04:21;;;;;;;101.07;53.63;;;2.40;99.90;;;;;;10357700;28;20205;-82
2024/01/30 20:09:42;;;;;;;76.67;44.97;;;2.40;1.00;;;;;;10413733;28;20190;-82
2024/01/30 20:15:04;;;;;;;75.03;39.57;;;2.50;1.00;;;;;;10379724;28;20523;-82
2024/01/30 20:20:25;;;;;;;93.40;45.23;;;2.60;99.90;;;;;;10393715;28;20386;-82
2024/01/30 20:25:46;;;;;;;97.63;47.37;;;2.70;1.00;;;;;;10417171;28;20219;-82
2024/01/30 20:31:08;;;;;;;96.97;47.00;;;2.80;1.00;;;;;;10386622;28;20562;-82
2024/01/30 20:36:30;;;;;;;72.97;40.80;;;2.90;1.00;;;;;;10365358;28;20198;-82
2024/01/30 20:41:52;;;;;;;78.00;40.03;;;2.80;1.00;;;;;;10375926;28;20221;-82
2024/01/30 20:47:14;;;;;;;79.13;41.07;;;2.70;1.00;;;;;;10375930;28;20210;-82
2024/01/30 20:52:35;;;;;;;145.70;66.43;;;2.70;1.00;;;;;;10378410;28;20232;-82
2024/01/30 20:57:56;;;;;;;205.97;92.57;;;2.70;1.00;;;;;;10378163;28;20194;-82
2024/01/30 21:03:17;;;;;;;92.80;45.70;;;2.60;1.00;;;;;;10388375;28;20276;-82
2024/01/30 21:08:42;;;;;;;82.93;39.80;;;2.60;1.00;;;;;;10421038;28;20284;-82
2024/01/30 21:14:04;;;;;;;70.73;36.77;;;2.60;1.00;;;;;;10399126;28;20227;-83
2024/01/30 21:19:25;;;;;;;90.10;43.67;;;2.60;1.00;;;;;;10385183;28;20491;-81
2024/01/30 21:24:46;;;;;;;109.13;45.70;;;2.60;62.70;;;;;;10364930;28;20194;-82
2024/01/30 21:30:11;;;;;;;125.73;53.97;;;2.70;1.00;;;;;;10386237;28;20237;-82
2024/01/30 21:35:32;;;;;;;189.50;71.80;;;2.70;1.00;;;;;;10400582;28;20240;-82
2024/01/30 21:40:53;;;;;;;195.77;75.90;;;2.70;1.00;;;;;;10357378;28;20551;-83
2024/01/30 21:46:27;;;;;;;223.77;84.10;;;2.70;53.10;;;;;;10357387;28;20226;-82
2024/01/30 21:51:50;;;;;;;174.10;70.17;;;2.70;1.00;;;;;;10357278;28;20227;-82
2024/01/30 21:57:11;;;;;;;168.83;67.40;;;2.70;1.00;;;;;;10343265;28;20457;-82
2024/01/30 22:02:32;;;;;;;179.70;65.47;;;2.60;1.00;;;;;;10370589;28;20281;-82
2024/01/30 22:07:54;;;;;;;162.20;60.80;;;2.60;1.00;;;;;;10395101;28;20462;-83
2024/01/30 22:13:16;;;;;;;167.87;64.60;;;2.60;85.00;;;;;;10382799;28;20236;-82
2024/01/30 22:18:37;;;;;;;144.60;59.33;;;2.70;1.00;;;;;;10396855;28;20197;-82
2024/01/30 22:24:01;;;;;;;107.73;48.30;;;2.70;99.90;;;;;;10395941;28;20201;-82
2024/01/30 22:29:22;;;;;;;111.07;48.53;;;2.90;43.00;;;;;;10378788;28;20474;-83
2024/01/30 22:34:44;;;;;;;112.07;48.17;;;2.90;1.00;;;;;;10382247;28;20323;-82
2024/01/30 22:40:06;;;;;;;106.77;47.63;;;2.90;1.00;;;;;;10423186;28;20197;-82
2024/01/30 22:45:27;;;;;;;68.20;34.57;;;2.90;1.00;;;;;;10436670;28;20208;-83
2024/01/30 22:50:51;;;;;;;55.87;30.97;;;3.00;99.90;;;;;;10423321;28;20270;-82
2024/01/30 22:56:13;;;;;;;58.93;27.70;;;3.10;1.00;;;;;;10406909;28;20393;-82
2024/01/30 23:01:36;;;;;;;57.13;27.40;;;3.20;1.00;;;;;;10374125;28;20204;-83
2024/01/30 23:07:22;;;;;;;50.13;26.97;;;3.30;1.00;;;;;;10383785;28;20209;-83
2024/01/30 23:13:03;;;;;;;52.03;25.60;;;3.40;1.00;;;;;;10395241;28;20376;-83
2024/01/30 23:18:44;;;;;;;50.17;25.57;;;3.40;1.00;;;;;;10395273;28;20204;-82
2024/01/30 23:24:25;;;;;;;52.67;26.13;;;3.40;1.00;;;;;;10387057;28;20212;-83
2024/01/30 23:30:08;;;;;;;43.37;24.07;;;3.40;1.00;;;;;;10394779;28;20237;-83
2024/01/30 23:35:49;;;;;;;44.77;23.47;;;3.40;1.00;;;;;;10394708;28;20238;-81
2024/01/30 23:41:30;;;;;;;47.77;23.03;;;3.40;1.00;;;;;;10395069;28;20207;-82
2024/01/30 23:47:12;;;;;;;39.43;20.73;;;3.50;1.00;;;;;;10394703;28;20293;-82
2024/01/30 23:52:53;;;;;;;37.27;20.60;;;3.60;99.90;;;;;;10383255;28;20227;-83
2024/01/30 23:58:34;;;;;;;35.50;19.50;;;3.60;99.90;;;;;;10391017;28;20242;-82
